createdAt,value
2022-10-04T00:02:27.542Z,88.80
2022-10-04T00:10:36.604Z,89.20
2022-10-04T00:18:43.944Z,89.10
2022-10-04T00:27:22.978Z,88.90
2022-10-04T00:35:51.099Z,88.50
2022-10-04T00:44:00.986Z,88.80
2022-10-04T00:52:14.739Z,89.40
2022-10-04T01:00:23.823Z,89.80
2022-10-04T01:08:31.847Z,89.80
2022-10-04T01:16:41.436Z,90.00
2022-10-04T01:24:49.707Z,90.10
2022-10-04T01:32:55.086Z,90.30
2022-10-04T01:41:06.237Z,90.20
2022-10-04T01:49:19.253Z,90.10
2022-10-04T01:57:34.878Z,90.50
2022-10-04T02:05:44.451Z,90.60
2022-10-04T02:13:55.639Z,90.50
2022-10-04T02:22:03.582Z,90.40
2022-10-04T02:30:14.675Z,90.50
2022-10-04T02:38:25.392Z,90.30
2022-10-04T02:46:37.763Z,90.40
2022-10-04T02:54:48.048Z,90.40
2022-10-04T03:03:19.468Z,90.50
2022-10-04T03:11:28.199Z,90.20
2022-10-04T03:19:37.621Z,90.00
2022-10-04T03:27:43.257Z,90.00
2022-10-04T03:35:55.117Z,89.50
2022-10-04T03:44:04.893Z,89.40
2022-10-04T03:52:22.816Z,89.10
2022-10-04T04:00:28.393Z,89.40
2022-10-04T04:08:39.335Z,89.50
2022-10-04T04:16:44.732Z,89.70
2022-10-04T04:24:53.296Z,90.00
2022-10-04T04:33:00.575Z,90.10
2022-10-04T04:41:14.546Z,90.00
2022-10-04T04:49:23.864Z,90.00
2022-10-04T04:57:33.525Z,90.00
2022-10-04T05:05:39.505Z,89.40
2022-10-04T05:13:52.791Z,89.70
2022-10-04T05:22:01.780Z,89.60
2022-10-04T05:30:19.440Z,90.00
2022-10-04T05:38:36.015Z,90.00
2022-10-04T05:46:44.201Z,89.70
2022-10-04T05:54:52.123Z,89.30
2022-10-04T06:03:39.003Z,88.50
2022-10-04T06:12:02.291Z,88.90
2022-10-04T06:20:37.760Z,88.80
2022-10-04T06:28:48.239Z,86.00
2022-10-04T06:37:24.521Z,88.00
2022-10-04T06:45:52.768Z,84.50
2022-10-04T06:54:11.044Z,82.70
2022-10-04T07:02:20.864Z,81.80
2022-10-04T07:10:36.005Z,80.20
2022-10-04T07:18:59.249Z,80.40
2022-10-04T07:27:14.791Z,81.00
2022-10-04T07:35:34.006Z,80.00
2022-10-04T07:43:51.182Z,79.90
2022-10-04T07:52:10.662Z,80.30
2022-10-04T08:00:22.028Z,79.60
2022-10-04T08:08:43.876Z,78.90
2022-10-04T08:17:06.354Z,78.80
2022-10-04T08:25:23.960Z,78.40
2022-10-04T08:33:50.061Z,77.60
2022-10-04T08:42:25.064Z,76.40
2022-10-04T08:51:01.353Z,75.40
2022-10-04T08:59:26.129Z,75.00
2022-10-04T09:08:04.374Z,73.00
2022-10-04T09:16:19.568Z,73.40
2022-10-04T09:24:53.824Z,71.20
2022-10-04T09:33:34.629Z,70.10
2022-10-04T09:41:53.975Z,72.50
2022-10-04T09:50:24.368Z,73.10
2022-10-04T09:59:10.189Z,67.90
2022-10-04T10:07:38.119Z,57.40
2022-10-04T10:16:01.178Z,46.30
2022-10-04T10:24:30.357Z,44.00
2022-10-04T10:32:58.088Z,51.70
2022-10-04T10:41:35.891Z,51.70
2022-10-04T10:50:05.949Z,43.10
2022-10-04T10:58:44.374Z,47.00
2022-10-04T11:07:26.677Z,51.60
2022-10-04T11:15:51.756Z,47.40
2022-10-04T11:24:33.186Z,44.10
2022-10-04T11:33:28.438Z,48.20
2022-10-04T11:41:53.451Z,52.80
2022-10-04T11:50:20.598Z,59.60
2022-10-04T11:58:38.730Z,64.50
2022-10-04T12:07:00.899Z,66.40
2022-10-04T12:15:39.135Z,68.80
2022-10-04T12:24:16.342Z,69.20
2022-10-04T12:32:33.972Z,68.20
2022-10-04T12:40:46.475Z,66.60
2022-10-04T12:49:08.942Z,66.40
2022-10-04T12:57:39.940Z,66.50
2022-10-04T13:06:03.163Z,65.40
2022-10-04T13:14:37.337Z,67.00
2022-10-04T13:22:56.866Z,66.20
2022-10-04T13:31:08.725Z,65.10
2022-10-04T13:39:33.492Z,64.30
2022-10-04T13:47:50.927Z,63.60
2022-10-04T13:56:18.886Z,63.90
2022-10-04T14:04:45.547Z,64.00
2022-10-04T14:13:26.246Z,64.50
2022-10-04T14:22:01.659Z,64.80
2022-10-04T14:30:20.375Z,66.50
2022-10-04T14:38:52.663Z,67.80
2022-10-04T14:47:13.878Z,69.20
2022-10-04T14:55:35.713Z,70.30
2022-10-04T15:04:02.738Z,70.70
2022-10-04T15:13:08.822Z,71.30
2022-10-04T15:21:12.480Z,72.40
2022-10-04T15:29:27.286Z,72.70
2022-10-04T15:37:47.105Z,73.10
2022-10-04T15:46:12.870Z,73.50
2022-10-04T15:54:59.791Z,74.00
2022-10-04T16:03:21.703Z,74.80
2022-10-04T16:11:42.479Z,75.20
2022-10-04T16:20:06.228Z,75.60
2022-10-04T16:28:26.239Z,75.60
2022-10-04T16:36:44.407Z,76.10
2022-10-04T16:44:56.791Z,76.50
2022-10-04T16:53:22.852Z,76.80
2022-10-04T17:02:15.854Z,77.00
2022-10-04T17:10:34.354Z,77.40
2022-10-04T17:18:55.427Z,77.60
2022-10-04T17:27:17.649Z,77.20
2022-10-04T17:36:11.288Z,77.40
2022-10-04T17:44:40.150Z,77.00
2022-10-04T17:53:04.530Z,77.20
2022-10-04T18:01:15.421Z,78.10
2022-10-04T18:09:30.332Z,79.40
2022-10-04T18:17:40.901Z,79.70
2022-10-04T18:25:51.406Z,80.70
2022-10-04T18:33:56.739Z,81.40
2022-10-04T18:42:19.265Z,82.20
2022-10-04T18:50:36.729Z,82.60
2022-10-04T18:59:16.902Z,83.30
2022-10-04T19:07:32.253Z,83.50
2022-10-04T19:16:15.464Z,83.80
2022-10-04T19:24:44.007Z,83.90
2022-10-04T19:33:02.717Z,84.00
2022-10-04T19:41:17.095Z,84.70
2022-10-04T19:49:34.381Z,83.90
2022-10-04T19:57:46.320Z,84.10
2022-10-04T20:05:55.613Z,84.30
2022-10-04T20:14:37.818Z,84.80
2022-10-04T20:23:00.900Z,83.80
2022-10-04T20:31:07.435Z,83.30
2022-10-04T20:40:01.099Z,83.90
2022-10-04T20:48:15.695Z,84.30
2022-10-04T20:56:26.866Z,85.10
2022-10-04T21:04:42.314Z,85.80
2022-10-04T21:12:51.774Z,86.20
2022-10-04T21:21:06.950Z,87.20
2022-10-04T21:29:15.020Z,86.60
2022-10-04T21:37:21.404Z,87.00
2022-10-04T21:45:29.361Z,87.90
2022-10-04T21:53:34.635Z,87.20
2022-10-04T22:01:42.598Z,87.20
2022-10-04T22:09:47.916Z,88.00
2022-10-04T22:17:55.821Z,88.20
2022-10-04T22:26:01.114Z,88.50
2022-10-04T22:34:16.186Z,88.80
2022-10-04T22:42:22.049Z,88.60
2022-10-04T22:50:35.810Z,88.50
2022-10-04T22:58:40.807Z,87.40
2022-10-04T23:06:48.927Z,86.90
2022-10-04T23:14:54.313Z,86.50
2022-10-04T23:23:03.054Z,86.50
2022-10-04T23:31:14.679Z,86.60
2022-10-04T23:39:27.900Z,86.60
2022-10-04T23:47:37.957Z,87.00
2022-10-04T23:55:48.161Z,87.20
